Wilmington, OH

7:43 PM EST on November 25, 2014 (GMT -0500)
Clarksville, OH - Clinton Co. | Change Station
CLOSE
Current Station
Personal Weather Station
Location: Clarksville, OH
Elevation: 928 ft
Nearby Weather Stations

Elev 928 ft 39.38 °N, 83.98 °W | Updated 15 seconds ago

Clear
Clear
34.3 °F
Feels Like 34 °F
N
0.4
Wind Variable Wind from NNW
Gusts 2.5 mph

Today
High -- | Low -- °F
--% Chance of Precip.
Yesterday
High -- | Low -- °F
Precip. -- in
7:30 AM 5:14 PM
Waxing Crescent, 15% visible
Pressure 30.22 in
Visibility 10.0 miles
Clouds Clear
Windchill 34 °F
Dew Point 29 °F
Humidity 80%
Rainfall 0.00 in
Snow Depth Not available.
UV 0 out of 12
Pollen .10 out of 12
Air Quality Not available.
Flu Activity Not available.
METAR KILN 252354Z AUTO 35005KT 10SM CLR 00/M03 A3015 RMK AO2 SLP234 T00001028 10061 20000 53018

More Conditions Fewer Conditions

Pressure 30.22 in
Visibility 10.0 miles
Clouds Clear
Windchill 34 °F
Dew Point 29 °F
Humidity 80%
Rainfall 0.00 in
Snow Depth Not available.
UV 0 out of 12
Pollen .10 out of 12
Air Quality Not available.
Flu Activity Not available.
METAR KILN 252354Z AUTO 35005KT 10SM CLR 00/M03 A3015 RMK AO2 SLP234 T00001028 10061 20000 53018

More Conditions Fewer Conditions

10-Day Weather Forecast

Almanac

Astronomy

Nov. 25, 2014 Rise Set
Actual Time
Civil Twilight
Nautical Twilight
Astronomical Twilight
Moon
Length of Visible Light
Length of Day
Tomorrow will be .
, % of the Moon is Illuminated

Today's Extremes

State Highs State Lows

Community

WunderPhotos

Upload Photos

1,773,629 photos uploaded!

WunderBlogs® & News

Nearby

Air Quality

  Air Quality AQ Index Pollutant
Not available.

Snow Depth

Station Depth Elevation

Earthquake Activity

City Distance Mag. Time & Date
Minimum magnitude displayed is 2.5.

Coastal Water Temperatures

Place Temperature

Nearby Weather Stations